sensor_id;sensor_type;location;lat;lon;timestamp;temperature;humidity
13458;DHT22;6801;53.018;11.560;2022-11-11T00:00:10;11.60;75.50
13458;DHT22;6801;53.018;11.560;2022-11-11T00:02:56;11.50;75.60
13458;DHT22;6801;53.018;11.560;2022-11-11T00:05:42;11.50;75.50
13458;DHT22;6801;53.018;11.560;2022-11-11T00:08:28;11.50;75.60
13458;DHT22;6801;53.018;11.560;2022-11-11T00:11:14;11.50;75.70
13458;DHT22;6801;53.018;11.560;2022-11-11T00:14:00;11.50;75.70
13458;DHT22;6801;53.018;11.560;2022-11-11T00:16:47;11.40;75.80
13458;DHT22;6801;53.018;11.560;2022-11-11T00:19:50;11.40;75.90
13458;DHT22;6801;53.018;11.560;2022-11-11T00:22:53;11.40;75.90
13458;DHT22;6801;53.018;11.560;2022-11-11T00:25:57;11.40;75.80
13458;DHT22;6801;53.018;11.560;2022-11-11T00:28:44;11.40;75.90
13458;DHT22;6801;53.018;11.560;2022-11-11T00:31:30;11.30;76.00
13458;DHT22;6801;53.018;11.560;2022-11-11T00:34:17;11.30;76.00
13458;DHT22;6801;53.018;11.560;2022-11-11T00:37:03;11.30;76.10
13458;DHT22;6801;53.018;11.560;2022-11-11T00:39:47;11.30;76.00
13458;DHT22;6801;53.018;11.560;2022-11-11T00:42:33;11.30;76.00
13458;DHT22;6801;53.018;11.560;2022-11-11T00:45:18;11.20;76.10
13458;DHT22;6801;53.018;11.560;2022-11-11T00:48:04;11.20;76.10
13458;DHT22;6801;53.018;11.560;2022-11-11T00:51:09;11.20;76.10
13458;DHT22;6801;53.018;11.560;2022-11-11T00:53:54;11.20;76.10
13458;DHT22;6801;53.018;11.560;2022-11-11T00:56:40;11.10;76.10
13458;DHT22;6801;53.018;11.560;2022-11-11T00:59:26;11.10;76.10
13458;DHT22;6801;53.018;11.560;2022-11-11T01:02:11;11.10;76.20
13458;DHT22;6801;53.018;11.560;2022-11-11T01:04:57;11.10;76.20
13458;DHT22;6801;53.018;11.560;2022-11-11T01:07:44;11.00;76.20
13458;DHT22;6801;53.018;11.560;2022-11-11T01:10:29;11.00;76.20
13458;DHT22;6801;53.018;11.560;2022-11-11T01:13:26;11.00;76.30
13458;DHT22;6801;53.018;11.560;2022-11-11T01:16:14;11.00;76.30
13458;DHT22;6801;53.018;11.560;2022-11-11T01:18:59;11.00;76.30
13458;DHT22;6801;53.018;11.560;2022-11-11T01:21:45;11.00;76.30
13458;DHT22;6801;53.018;11.560;2022-11-11T01:24:32;11.00;76.40
13458;DHT22;6801;53.018;11.560;2022-11-11T01:27:17;10.90;76.40
13458;DHT22;6801;53.018;11.560;2022-11-11T01:30:04;11.00;76.30
13458;DHT22;6801;53.018;11.560;2022-11-11T01:32:50;11.00;76.20
13458;DHT22;6801;53.018;11.560;2022-11-11T01:35:37;11.00;76.30
13458;DHT22;6801;53.018;11.560;2022-11-11T01:38:23;11.00;76.20
13458;DHT22;6801;53.018;11.560;2022-11-11T01:41:14;10.90;76.20
13458;DHT22;6801;53.018;11.560;2022-11-11T01:44:40;10.90;76.30
13458;DHT22;6801;53.018;11.560;2022-11-11T01:47:25;10.90;76.20
13458;DHT22;6801;53.018;11.560;2022-11-11T01:50:31;10.90;76.30
13458;DHT22;6801;53.018;11.560;2022-11-11T01:53:16;10.90;76.40
13458;DHT22;6801;53.018;11.560;2022-11-11T01:56:01;10.90;76.40
13458;DHT22;6801;53.018;11.560;2022-11-11T01:58:50;10.80;76.40
13458;DHT22;6801;53.018;11.560;2022-11-11T02:01:37;10.80;76.40
13458;DHT22;6801;53.018;11.560;2022-11-11T02:04:24;10.80;76.40
13458;DHT22;6801;53.018;11.560;2022-11-11T02:07:29;10.80;76.50
13458;DHT22;6801;53.018;11.560;2022-11-11T02:10:16;10.80;76.40
13458;DHT22;6801;53.018;11.560;2022-11-11T02:13:02;10.70;76.50
13458;DHT22;6801;53.018;11.560;2022-11-11T02:16:07;10.70;76.40
13458;DHT22;6801;53.018;11.560;2022-11-11T02:18:53;10.70;76.40
13458;DHT22;6801;53.018;11.560;2022-11-11T02:21:44;10.60;76.50
13458;DHT22;6801;53.018;11.560;2022-11-11T02:24:33;10.60;76.60
13458;DHT22;6801;53.018;11.560;2022-11-11T02:27:21;10.60;76.60
13458;DHT22;6801;53.018;11.560;2022-11-11T02:30:08;10.60;76.70
13458;DHT22;6801;53.018;11.560;2022-11-11T02:32:58;10.50;76.70
13458;DHT22;6801;53.018;11.560;2022-11-11T02:35:46;10.50;76.70
13458;DHT22;6801;53.018;11.560;2022-11-11T02:38:38;10.50;76.60
13458;DHT22;6801;53.018;11.560;2022-11-11T02:41:24;10.50;76.60
13458;DHT22;6801;53.018;11.560;2022-11-11T02:44:28;10.50;76.60
13458;DHT22;6801;53.018;11.560;2022-11-11T02:47:14;10.50;76.60
13458;DHT22;6801;53.018;11.560;2022-11-11T02:49:59;10.50;76.60
13458;DHT22;6801;53.018;11.560;2022-11-11T02:52:44;10.50;76.70
13458;DHT22;6801;53.018;11.560;2022-11-11T02:55:30;10.50;76.70
13458;DHT22;6801;53.018;11.560;2022-11-11T02:58:17;10.40;76.70
13458;DHT22;6801;53.018;11.560;2022-11-11T03:01:03;10.40;76.70
13458;DHT22;6801;53.018;11.560;2022-11-11T03:03:48;10.40;76.80
13458;DHT22;6801;53.018;11.560;2022-11-11T03:06:34;10.40;76.80
13458;DHT22;6801;53.018;11.560;2022-11-11T03:09:19;10.40;76.80
13458;DHT22;6801;53.018;11.560;2022-11-11T03:12:05;10.40;76.80
13458;DHT22;6801;53.018;11.560;2022-11-11T03:14:52;10.40;76.90
13458;DHT22;6801;53.018;11.560;2022-11-11T03:17:38;10.40;76.90
13458;DHT22;6801;53.018;11.560;2022-11-11T03:20:23;10.40;76.90
13458;DHT22;6801;53.018;11.560;2022-11-11T03:23:26;10.30;77.00
13458;DHT22;6801;53.018;11.560;2022-11-11T03:26:12;10.30;77.00
13458;DHT22;6801;53.018;11.560;2022-11-11T03:28:59;10.40;77.00
13458;DHT22;6801;53.018;11.560;2022-11-11T03:31:46;10.30;77.00
13458;DHT22;6801;53.018;11.560;2022-11-11T03:34:32;10.30;77.00
13458;DHT22;6801;53.018;11.560;2022-11-11T03:37:17;10.30;77.10
13458;DHT22;6801;53.018;11.560;2022-11-11T03:40:20;10.30;77.10
13458;DHT22;6801;53.018;11.560;2022-11-11T03:43:06;10.20;77.10
13458;DHT22;6801;53.018;11.560;2022-11-11T03:45:53;10.20;77.10
13458;DHT22;6801;53.018;11.560;2022-11-11T03:48:40;10.20;77.20
13458;DHT22;6801;53.018;11.560;2022-11-11T03:51:25;10.20;77.20
13458;DHT22;6801;53.018;11.560;2022-11-11T03:54:11;10.20;77.20
13458;DHT22;6801;53.018;11.560;2022-11-11T03:56:57;10.20;77.20
13458;DHT22;6801;53.018;11.560;2022-11-11T03:59:57;10.20;77.20
13458;DHT22;6801;53.018;11.560;2022-11-11T04:02:42;10.10;77.20
13458;DHT22;6801;53.018;11.560;2022-11-11T04:05:47;10.10;77.20
13458;DHT22;6801;53.018;11.560;2022-11-11T04:09:01;10.10;77.20
13458;DHT22;6801;53.018;11.560;2022-11-11T04:12:05;10.10;77.30
13458;DHT22;6801;53.018;11.560;2022-11-11T04:14:51;10.10;77.30
13458;DHT22;6801;53.018;11.560;2022-11-11T04:17:54;10.00;77.20
13458;DHT22;6801;53.018;11.560;2022-11-11T04:20:42;10.00;77.20
13458;DHT22;6801;53.018;11.560;2022-11-11T04:23:46;10.00;77.20
13458;DHT22;6801;53.018;11.560;2022-11-11T04:26:32;10.00;77.20
13458;DHT22;6801;53.018;11.560;2022-11-11T04:29:16;10.00;77.30
13458;DHT22;6801;53.018;11.560;2022-11-11T04:32:15;10.00;77.30
13458;DHT22;6801;53.018;11.560;2022-11-11T04:35:21;10.00;77.30
13458;DHT22;6801;53.018;11.560;2022-11-11T04:38:08;10.00;77.30
13458;DHT22;6801;53.018;11.560;2022-11-11T04:41:24;10.00;77.30
13458;DHT22;6801;53.018;11.560;2022-11-11T04:44:10;9.90;77.20
13458;DHT22;6801;53.018;11.560;2022-11-11T04:47:13;9.90;77.20
13458;DHT22;6801;53.018;11.560;2022-11-11T04:49:58;9.90;77.20
13458;DHT22;6801;53.018;11.560;2022-11-11T04:52:44;9.90;77.20
13458;DHT22;6801;53.018;11.560;2022-11-11T04:55:30;9.90;77.30
13458;DHT22;6801;53.018;11.560;2022-11-11T04:58:34;9.90;77.30
13458;DHT22;6801;53.018;11.560;2022-11-11T05:01:20;9.80;77.30
13458;DHT22;6801;53.018;11.560;2022-11-11T05:04:20;9.90;77.30
13458;DHT22;6801;53.018;11.560;2022-11-11T05:07:05;9.90;77.30
13458;DHT22;6801;53.018;11.560;2022-11-11T05:10:10;9.80;77.40
13458;DHT22;6801;53.018;11.560;2022-11-11T05:12:56;9.80;77.40
13458;DHT22;6801;53.018;11.560;2022-11-11T05:16:03;9.90;77.40
13458;DHT22;6801;53.018;11.560;2022-11-11T05:19:08;9.90;77.50
13458;DHT22;6801;53.018;11.560;2022-11-11T05:22:15;9.90;77.40
13458;DHT22;6801;53.018;11.560;2022-11-11T05:25:04;9.90;77.40
13458;DHT22;6801;53.018;11.560;2022-11-11T05:28:08;9.90;77.50
13458;DHT22;6801;53.018;11.560;2022-11-11T05:30:54;9.90;77.50
13458;DHT22;6801;53.018;11.560;2022-11-11T05:33:41;9.90;77.50
13458;DHT22;6801;53.018;11.560;2022-11-11T05:36:27;9.90;77.50
13458;DHT22;6801;53.018;11.560;2022-11-11T05:39:13;9.90;77.60
13458;DHT22;6801;53.018;11.560;2022-11-11T05:41:59;9.90;77.50
13458;DHT22;6801;53.018;11.560;2022-11-11T05:44:45;9.90;77.60
13458;DHT22;6801;53.018;11.560;2022-11-11T05:47:31;10.00;77.50
13458;DHT22;6801;53.018;11.560;2022-11-11T05:50:19;10.00;77.50
13458;DHT22;6801;53.018;11.560;2022-11-11T05:53:05;10.00;77.50
13458;DHT22;6801;53.018;11.560;2022-11-11T05:55:51;10.00;77.40
13458;DHT22;6801;53.018;11.560;2022-11-11T05:58:37;10.00;77.40
13458;DHT22;6801;53.018;11.560;2022-11-11T06:01:23;10.00;77.50
13458;DHT22;6801;53.018;11.560;2022-11-11T06:04:09;10.00;77.40
13458;DHT22;6801;53.018;11.560;2022-11-11T06:06:55;9.90;77.30
13458;DHT22;6801;53.018;11.560;2022-11-11T06:09:41;9.90;77.50
13458;DHT22;6801;53.018;11.560;2022-11-11T06:12:27;9.90;77.40
13458;DHT22;6801;53.018;11.560;2022-11-11T06:15:34;9.90;77.50
13458;DHT22;6801;53.018;11.560;2022-11-11T06:18:19;9.90;77.50
13458;DHT22;6801;53.018;11.560;2022-11-11T06:21:05;9.90;77.40
13458;DHT22;6801;53.018;11.560;2022-11-11T06:23:52;9.90;77.50
13458;DHT22;6801;53.018;11.560;2022-11-11T06:26:38;9.90;77.50
13458;DHT22;6801;53.018;11.560;2022-11-11T06:29:24;9.90;77.50
13458;DHT22;6801;53.018;11.560;2022-11-11T06:32:09;9.90;77.50
13458;DHT22;6801;53.018;11.560;2022-11-11T06:34:55;9.90;77.50
13458;DHT22;6801;53.018;11.560;2022-11-11T06:37:41;9.90;77.50
13458;DHT22;6801;53.018;11.560;2022-11-11T06:40:28;9.90;77.50
13458;DHT22;6801;53.018;11.560;2022-11-11T06:43:14;9.80;77.60
13458;DHT22;6801;53.018;11.560;2022-11-11T06:45:59;9.80;77.50
13458;DHT22;6801;53.018;11.560;2022-11-11T06:48:45;9.80;77.70
13458;DHT22;6801;53.018;11.560;2022-11-11T06:51:31;9.80;77.70
13458;DHT22;6801;53.018;11.560;2022-11-11T06:54:16;9.80;77.80
13458;DHT22;6801;53.018;11.560;2022-11-11T06:57:04;9.80;77.70
13458;DHT22;6801;53.018;11.560;2022-11-11T06:59:49;9.80;77.70
13458;DHT22;6801;53.018;11.560;2022-11-11T07:02:35;9.80;77.70
13458;DHT22;6801;53.018;11.560;2022-11-11T07:05:21;9.80;77.60
13458;DHT22;6801;53.018;11.560;2022-11-11T07:08:09;9.80;77.60
13458;DHT22;6801;53.018;11.560;2022-11-11T07:10:56;9.80;77.70
13458;DHT22;6801;53.018;11.560;2022-11-11T07:13:42;9.80;77.60
13458;DHT22;6801;53.018;11.560;2022-11-11T07:16:28;9.90;77.50
13458;DHT22;6801;53.018;11.560;2022-11-11T07:19:13;9.90;77.50
13458;DHT22;6801;53.018;11.560;2022-11-11T07:21:59;9.90;77.40
13458;DHT22;6801;53.018;11.560;2022-11-11T07:24:45;9.90;77.50
13458;DHT22;6801;53.018;11.560;2022-11-11T07:27:30;9.90;77.50
13458;DHT22;6801;53.018;11.560;2022-11-11T07:30:18;10.00;77.40
13458;DHT22;6801;53.018;11.560;2022-11-11T07:33:03;10.00;77.50
13458;DHT22;6801;53.018;11.560;2022-11-11T07:35:49;10.00;77.40
13458;DHT22;6801;53.018;11.560;2022-11-11T07:38:34;10.00;77.40
13458;DHT22;6801;53.018;11.560;2022-11-11T07:41:20;10.00;77.40
13458;DHT22;6801;53.018;11.560;2022-11-11T07:44:06;10.00;77.40
13458;DHT22;6801;53.018;11.560;2022-11-11T07:46:52;10.00;77.40
13458;DHT22;6801;53.018;11.560;2022-11-11T07:49:38;10.10;77.30
13458;DHT22;6801;53.018;11.560;2022-11-11T07:52:24;10.10;77.30
13458;DHT22;6801;53.018;11.560;2022-11-11T07:55:09;10.10;77.20
13458;DHT22;6801;53.018;11.560;2022-11-11T07:57:56;10.10;77.20
13458;DHT22;6801;53.018;11.560;2022-11-11T08:00:42;10.10;77.20
13458;DHT22;6801;53.018;11.560;2022-11-11T08:03:29;10.10;77.20
13458;DHT22;6801;53.018;11.560;2022-11-11T08:06:14;10.10;77.10
13458;DHT22;6801;53.018;11.560;2022-11-11T08:09:00;10.10;77.20
13458;DHT22;6801;53.018;11.560;2022-11-11T08:11:46;10.10;77.20
13458;DHT22;6801;53.018;11.560;2022-11-11T08:14:49;10.10;77.20
13458;DHT22;6801;53.018;11.560;2022-11-11T08:17:38;10.10;77.20
13458;DHT22;6801;53.018;11.560;2022-11-11T08:20:25;10.10;77.20
13458;DHT22;6801;53.018;11.560;2022-11-11T08:23:11;10.10;77.30
13458;DHT22;6801;53.018;11.560;2022-11-11T08:25:58;10.20;77.30
13458;DHT22;6801;53.018;11.560;2022-11-11T08:28:44;10.20;77.20
13458;DHT22;6801;53.018;11.560;2022-11-11T08:31:29;10.20;77.20
13458;DHT22;6801;53.018;11.560;2022-11-11T08:34:16;10.20;77.20
13458;DHT22;6801;53.018;11.560;2022-11-11T08:37:03;10.20;77.20
13458;DHT22;6801;53.018;11.560;2022-11-11T08:39:48;10.20;77.20
13458;DHT22;6801;53.018;11.560;2022-11-11T08:42:35;10.30;77.10
13458;DHT22;6801;53.018;11.560;2022-11-11T08:45:21;10.30;77.10
13458;DHT22;6801;53.018;11.560;2022-11-11T08:48:07;10.30;77.10
13458;DHT22;6801;53.018;11.560;2022-11-11T08:50:53;10.30;77.00
13458;DHT22;6801;53.018;11.560;2022-11-11T08:53:40;10.30;77.10
13458;DHT22;6801;53.018;11.560;2022-11-11T08:56:26;10.40;77.00
13458;DHT22;6801;53.018;11.560;2022-11-11T08:59:11;10.40;77.00
13458;DHT22;6801;53.018;11.560;2022-11-11T09:01:57;10.40;77.00
13458;DHT22;6801;53.018;11.560;2022-11-11T09:04:43;10.50;77.10
13458;DHT22;6801;53.018;11.560;2022-11-11T09:07:29;10.50;77.00
13458;DHT22;6801;53.018;11.560;2022-11-11T09:10:16;10.50;77.00
13458;DHT22;6801;53.018;11.560;2022-11-11T09:13:02;10.50;77.00
13458;DHT22;6801;53.018;11.560;2022-11-11T09:15:48;10.60;77.00
13458;DHT22;6801;53.018;11.560;2022-11-11T09:18:33;10.60;77.00
13458;DHT22;6801;53.018;11.560;2022-11-11T09:21:19;10.60;77.00
13458;DHT22;6801;53.018;11.560;2022-11-11T09:24:05;10.60;77.00
13458;DHT22;6801;53.018;11.560;2022-11-11T09:26:52;10.70;77.00
13458;DHT22;6801;53.018;11.560;2022-11-11T09:29:37;10.70;76.90
13458;DHT22;6801;53.018;11.560;2022-11-11T09:32:23;10.70;76.90
13458;DHT22;6801;53.018;11.560;2022-11-11T09:35:08;10.70;76.90
13458;DHT22;6801;53.018;11.560;2022-11-11T09:37:55;10.80;76.80
13458;DHT22;6801;53.018;11.560;2022-11-11T09:40:48;10.80;76.80
13458;DHT22;6801;53.018;11.560;2022-11-11T09:43:44;10.80;76.90
13458;DHT22;6801;53.018;11.560;2022-11-11T09:46:35;10.90;76.80
13458;DHT22;6801;53.018;11.560;2022-11-11T09:52:36;11.00;76.60
13458;DHT22;6801;53.018;11.560;2022-11-11T09:55:28;11.00;76.50
13458;DHT22;6801;53.018;11.560;2022-11-11T09:58:18;11.10;76.40
13458;DHT22;6801;53.018;11.560;2022-11-11T10:01:09;11.10;76.40
13458;DHT22;6801;53.018;11.560;2022-11-11T10:04:03;11.20;76.40
13458;DHT22;6801;53.018;11.560;2022-11-11T10:06:52;11.30;76.20
13458;DHT22;6801;53.018;11.560;2022-11-11T10:09:43;11.30;76.00
13458;DHT22;6801;53.018;11.560;2022-11-11T10:12:36;11.40;75.90
13458;DHT22;6801;53.018;11.560;2022-11-11T10:15:27;11.40;75.80
13458;DHT22;6801;53.018;11.560;2022-11-11T10:18:25;11.50;75.70
13458;DHT22;6801;53.018;11.560;2022-11-11T10:21:14;11.50;75.80
13458;DHT22;6801;53.018;11.560;2022-11-11T10:24:01;11.50;75.70
13458;DHT22;6801;53.018;11.560;2022-11-11T10:26:50;11.60;75.30
13458;DHT22;6801;53.018;11.560;2022-11-11T10:29:40;11.60;75.40
13458;DHT22;6801;53.018;11.560;2022-11-11T10:32:28;11.70;75.50
13458;DHT22;6801;53.018;11.560;2022-11-11T10:35:21;11.70;75.40
13458;DHT22;6801;53.018;11.560;2022-11-11T10:38:17;11.70;75.40
13458;DHT22;6801;53.018;11.560;2022-11-11T10:41:11;11.80;75.30
13458;DHT22;6801;53.018;11.560;2022-11-11T10:43:57;11.80;75.30
13458;DHT22;6801;53.018;11.560;2022-11-11T10:46:51;11.80;75.30
13458;DHT22;6801;53.018;11.560;2022-11-11T10:49:44;11.90;75.20
13458;DHT22;6801;53.018;11.560;2022-11-11T10:52:39;11.90;75.30
13458;DHT22;6801;53.018;11.560;2022-11-11T10:55:30;12.00;75.20
13458;DHT22;6801;53.018;11.560;2022-11-11T10:58:22;12.00;75.10
13458;DHT22;6801;53.018;11.560;2022-11-11T11:01:12;12.00;74.90
13458;DHT22;6801;53.018;11.560;2022-11-11T11:04:03;12.10;74.80
13458;DHT22;6801;53.018;11.560;2022-11-11T11:06:52;12.20;74.80
13458;DHT22;6801;53.018;11.560;2022-11-11T11:09:44;12.20;74.80
13458;DHT22;6801;53.018;11.560;2022-11-11T11:12:38;12.20;74.80
13458;DHT22;6801;53.018;11.560;2022-11-11T11:15:27;12.30;74.90
13458;DHT22;6801;53.018;11.560;2022-11-11T11:18:16;12.30;74.90
13458;DHT22;6801;53.018;11.560;2022-11-11T11:21:04;12.40;74.90
13458;DHT22;6801;53.018;11.560;2022-11-11T11:23:50;12.40;74.90
13458;DHT22;6801;53.018;11.560;2022-11-11T11:26:45;12.50;74.80
13458;DHT22;6801;53.018;11.560;2022-11-11T11:29:32;12.50;74.80
13458;DHT22;6801;53.018;11.560;2022-11-11T11:32:19;12.60;74.80
13458;DHT22;6801;53.018;11.560;2022-11-11T11:35:07;12.70;74.70
13458;DHT22;6801;53.018;11.560;2022-11-11T11:37:53;12.70;74.60
13458;DHT22;6801;53.018;11.560;2022-11-11T11:40:47;12.80;74.50
13458;DHT22;6801;53.018;11.560;2022-11-11T11:43:35;12.80;74.30
13458;DHT22;6801;53.018;11.560;2022-11-11T11:46:27;12.90;74.10
13458;DHT22;6801;53.018;11.560;2022-11-11T11:49:22;13.00;74.10
13458;DHT22;6801;53.018;11.560;2022-11-11T11:52:16;13.00;74.10
13458;DHT22;6801;53.018;11.560;2022-11-11T11:55:10;13.00;73.80
13458;DHT22;6801;53.018;11.560;2022-11-11T11:58:19;13.10;73.70
13458;DHT22;6801;53.018;11.560;2022-11-11T12:01:10;13.10;73.80
13458;DHT22;6801;53.018;11.560;2022-11-11T12:04:38;13.20;73.70
13458;DHT22;6801;53.018;11.560;2022-11-11T12:07:58;13.20;73.70
13458;DHT22;6801;53.018;11.560;2022-11-11T12:10:52;13.30;73.40
13458;DHT22;6801;53.018;11.560;2022-11-11T12:13:48;13.40;73.30
13458;DHT22;6801;53.018;11.560;2022-11-11T12:16:41;13.40;73.30
13458;DHT22;6801;53.018;11.560;2022-11-11T12:19:49;13.40;73.40
13458;DHT22;6801;53.018;11.560;2022-11-11T12:22:47;13.50;73.40
13458;DHT22;6801;53.018;11.560;2022-11-11T12:25:41;13.50;73.40
13458;DHT22;6801;53.018;11.560;2022-11-11T12:28:41;13.50;73.40
13458;DHT22;6801;53.018;11.560;2022-11-11T12:31:44;13.50;73.20
13458;DHT22;6801;53.018;11.560;2022-11-11T12:34:52;13.60;73.20
13458;DHT22;6801;53.018;11.560;2022-11-11T12:37:49;13.70;73.10
13458;DHT22;6801;53.018;11.560;2022-11-11T12:40:45;13.70;72.90
13458;DHT22;6801;53.018;11.560;2022-11-11T12:43:37;13.80;72.70
13458;DHT22;6801;53.018;11.560;2022-11-11T12:46:32;13.80;72.70
13458;DHT22;6801;53.018;11.560;2022-11-11T12:49:42;13.80;72.80
13458;DHT22;6801;53.018;11.560;2022-11-11T12:52:37;13.90;72.70
13458;DHT22;6801;53.018;11.560;2022-11-11T12:55:35;14.00;72.50
13458;DHT22;6801;53.018;11.560;2022-11-11T12:58:30;14.00;72.30
13458;DHT22;6801;53.018;11.560;2022-11-11T13:01:27;14.00;71.80
13458;DHT22;6801;53.018;11.560;2022-11-11T13:04:38;14.10;71.20
13458;DHT22;6801;53.018;11.560;2022-11-11T13:07:48;14.10;71.60
13458;DHT22;6801;53.018;11.560;2022-11-11T13:10:44;14.20;71.40
13458;DHT22;6801;53.018;11.560;2022-11-11T13:13:40;14.20;71.40
13458;DHT22;6801;53.018;11.560;2022-11-11T13:16:28;14.20;71.40
13458;DHT22;6801;53.018;11.560;2022-11-11T13:19:17;14.20;71.60
13458;DHT22;6801;53.018;11.560;2022-11-11T13:22:12;14.30;71.70
13458;DHT22;6801;53.018;11.560;2022-11-11T13:25:03;14.20;71.60
13458;DHT22;6801;53.018;11.560;2022-11-11T13:27:53;14.20;71.50
13458;DHT22;6801;53.018;11.560;2022-11-11T13:30:47;14.30;71.00
13458;DHT22;6801;53.018;11.560;2022-11-11T13:33:40;14.30;71.30
13458;DHT22;6801;53.018;11.560;2022-11-11T13:36:28;14.30;71.40
13458;DHT22;6801;53.018;11.560;2022-11-11T13:39:30;14.30;71.10
13458;DHT22;6801;53.018;11.560;2022-11-11T13:42:21;14.30;71.00
13458;DHT22;6801;53.018;11.560;2022-11-11T13:45:12;14.30;70.90
13458;DHT22;6801;53.018;11.560;2022-11-11T13:48:05;14.30;71.20
13458;DHT22;6801;53.018;11.560;2022-11-11T13:50:51;14.30;71.10
13458;DHT22;6801;53.018;11.560;2022-11-11T13:53:38;14.30;71.40
13458;DHT22;6801;53.018;11.560;2022-11-11T13:56:30;14.30;71.60
13458;DHT22;6801;53.018;11.560;2022-11-11T13:59:21;14.30;71.60
13458;DHT22;6801;53.018;11.560;2022-11-11T14:02:27;14.30;71.60
13458;DHT22;6801;53.018;11.560;2022-11-11T14:05:21;14.30;71.50
13458;DHT22;6801;53.018;11.560;2022-11-11T14:08:07;14.30;71.60
13458;DHT22;6801;53.018;11.560;2022-11-11T14:10:55;14.40;71.60
13458;DHT22;6801;53.018;11.560;2022-11-11T14:13:44;14.40;71.40
13458;DHT22;6801;53.018;11.560;2022-11-11T14:16:58;14.40;71.40
13458;DHT22;6801;53.018;11.560;2022-11-11T14:19:44;14.40;71.20
13458;DHT22;6801;53.018;11.560;2022-11-11T14:22:31;14.30;71.10
13458;DHT22;6801;53.018;11.560;2022-11-11T14:25:20;14.30;71.20
13458;DHT22;6801;53.018;11.560;2022-11-11T14:28:19;14.30;71.30
13458;DHT22;6801;53.018;11.560;2022-11-11T14:34:53;14.30;71.40
13458;DHT22;6801;53.018;11.560;2022-11-11T14:38:14;14.30;71.40
13458;DHT22;6801;53.018;11.560;2022-11-11T14:41:37;14.30;71.40
13458;DHT22;6801;53.018;11.560;2022-11-11T14:44:41;14.30;71.30
13458;DHT22;6801;53.018;11.560;2022-11-11T14:47:32;14.30;71.30
13458;DHT22;6801;53.018;11.560;2022-11-11T14:53:33;14.20;71.20
13458;DHT22;6801;53.018;11.560;2022-11-11T14:56:21;14.20;71.20
13458;DHT22;6801;53.018;11.560;2022-11-11T14:59:11;14.20;71.10
13458;DHT22;6801;53.018;11.560;2022-11-11T15:01:59;14.10;71.10
13458;DHT22;6801;53.018;11.560;2022-11-11T15:04:46;14.10;70.90
13458;DHT22;6801;53.018;11.560;2022-11-11T15:11:15;14.00;70.80
13458;DHT22;6801;53.018;11.560;2022-11-11T15:14:22;14.00;70.90
13458;DHT22;6801;53.018;11.560;2022-11-11T15:17:20;14.00;70.80
13458;DHT22;6801;53.018;11.560;2022-11-11T15:20:21;14.00;70.70
13458;DHT22;6801;53.018;11.560;2022-11-11T15:23:16;13.90;70.70
13458;DHT22;6801;53.018;11.560;2022-11-11T15:26:11;13.80;70.70
13458;DHT22;6801;53.018;11.560;2022-11-11T15:29:18;13.80;70.80
13458;DHT22;6801;53.018;11.560;2022-11-11T15:32:13;13.80;70.90
13458;DHT22;6801;53.018;11.560;2022-11-11T15:38:11;13.70;71.10
13458;DHT22;6801;53.018;11.560;2022-11-11T15:40:58;13.60;71.20
13458;DHT22;6801;53.018;11.560;2022-11-11T15:43:45;13.50;71.30
13458;DHT22;6801;53.018;11.560;2022-11-11T15:46:36;13.50;71.20
13458;DHT22;6801;53.018;11.560;2022-11-11T15:49:40;13.50;71.20
13458;DHT22;6801;53.018;11.560;2022-11-11T15:52:28;13.40;71.30
13458;DHT22;6801;53.018;11.560;2022-11-11T15:55:23;13.30;71.40
13458;DHT22;6801;53.018;11.560;2022-11-11T15:58:10;13.30;71.30
13458;DHT22;6801;53.018;11.560;2022-11-11T16:00:58;13.20;71.30
13458;DHT22;6801;53.018;11.560;2022-11-11T16:03:46;13.10;71.40
13458;DHT22;6801;53.018;11.560;2022-11-11T16:06:34;13.10;71.50
13458;DHT22;6801;53.018;11.560;2022-11-11T16:09:26;13.00;71.50
13458;DHT22;6801;53.018;11.560;2022-11-11T16:12:15;13.00;71.50
13458;DHT22;6801;53.018;11.560;2022-11-11T16:15:06;13.00;71.60
13458;DHT22;6801;53.018;11.560;2022-11-11T16:17:54;12.90;71.60
13458;DHT22;6801;53.018;11.560;2022-11-11T16:20:48;12.80;71.70
13458;DHT22;6801;53.018;11.560;2022-11-11T16:23:36;12.80;71.60
13458;DHT22;6801;53.018;11.560;2022-11-11T16:26:23;12.70;71.60
13458;DHT22;6801;53.018;11.560;2022-11-11T16:29:13;12.60;71.50
13458;DHT22;6801;53.018;11.560;2022-11-11T16:31:59;12.60;71.60
13458;DHT22;6801;53.018;11.560;2022-11-11T16:34:46;12.50;71.60
13458;DHT22;6801;53.018;11.560;2022-11-11T16:37:49;12.50;71.70
13458;DHT22;6801;53.018;11.560;2022-11-11T16:40:42;12.40;71.70
13458;DHT22;6801;53.018;11.560;2022-11-11T16:43:30;12.30;71.80
13458;DHT22;6801;53.018;11.560;2022-11-11T16:46:39;12.30;71.90
13458;DHT22;6801;53.018;11.560;2022-11-11T16:49:28;12.20;71.90
13458;DHT22;6801;53.018;11.560;2022-11-11T16:52:18;12.20;71.90
13458;DHT22;6801;53.018;11.560;2022-11-11T16:55:07;12.20;72.00
13458;DHT22;6801;53.018;11.560;2022-11-11T16:57:53;12.10;72.00
13458;DHT22;6801;53.018;11.560;2022-11-11T17:00:39;12.10;72.10
13458;DHT22;6801;53.018;11.560;2022-11-11T17:03:26;12.00;72.10
13458;DHT22;6801;53.018;11.560;2022-11-11T17:06:12;12.00;72.10
13458;DHT22;6801;53.018;11.560;2022-11-11T17:08:57;12.00;72.10
13458;DHT22;6801;53.018;11.560;2022-11-11T17:11:45;12.00;72.10
13458;DHT22;6801;53.018;11.560;2022-11-11T17:14:32;11.90;72.20
13458;DHT22;6801;53.018;11.560;2022-11-11T17:17:18;11.90;72.20
13458;DHT22;6801;53.018;11.560;2022-11-11T17:20:07;11.80;72.10
13458;DHT22;6801;53.018;11.560;2022-11-11T17:22:55;11.80;72.20
13458;DHT22;6801;53.018;11.560;2022-11-11T17:25:41;11.80;72.20
13458;DHT22;6801;53.018;11.560;2022-11-11T17:28:32;11.80;72.20
13458;DHT22;6801;53.018;11.560;2022-11-11T17:31:18;11.70;72.30
13458;DHT22;6801;53.018;11.560;2022-11-11T17:34:05;11.60;72.30
13458;DHT22;6801;53.018;11.560;2022-11-11T17:36:51;11.60;72.30
13458;DHT22;6801;53.018;11.560;2022-11-11T17:39:36;11.50;72.40
13458;DHT22;6801;53.018;11.560;2022-11-11T17:42:28;11.50;72.40
13458;DHT22;6801;53.018;11.560;2022-11-11T17:45:15;11.50;72.50
13458;DHT22;6801;53.018;11.560;2022-11-11T17:48:01;11.40;72.50
13458;DHT22;6801;53.018;11.560;2022-11-11T17:50:46;11.40;72.50
13458;DHT22;6801;53.018;11.560;2022-11-11T17:53:32;11.30;72.60
13458;DHT22;6801;53.018;11.560;2022-11-11T17:56:19;11.30;72.60
13458;DHT22;6801;53.018;11.560;2022-11-11T17:59:05;11.30;72.60
13458;DHT22;6801;53.018;11.560;2022-11-11T18:01:53;11.30;72.60
13458;DHT22;6801;53.018;11.560;2022-11-11T18:04:38;11.20;72.70
13458;DHT22;6801;53.018;11.560;2022-11-11T18:07:24;11.20;72.80
13458;DHT22;6801;53.018;11.560;2022-11-11T18:10:11;11.10;72.80
13458;DHT22;6801;53.018;11.560;2022-11-11T18:12:57;11.10;72.80
13458;DHT22;6801;53.018;11.560;2022-11-11T18:15:42;11.00;72.90